Time;durP1;ratioP1;P1;durP2;ratioP2;P2;SDS_P1;SDS_P2;PMS_P1;PMS_P2;Temp;Humidity;BMP_temperature;BMP_pressure;BME280_temperature;BME280_humidity;BME280_pressure;Samples;Min_cycle;Max_cycle;Signal;HPM_P1;HPM_P2
2022/11/16 00:01:11;;;;;;;233.80;65.33;;;;;;;-141.28;100.00;49156.66;5114149;28;20460;-75
2022/11/16 00:03:46;;;;;;;201.93;64.17;;;;;;;-141.28;100.00;49142.94;5112467;28;20480;-74
2022/11/16 00:06:15;;;;;;;189.97;62.03;;;;;;;-141.28;100.00;49148.81;5113910;28;20448;-75
2022/11/16 00:09:20;;;;;;;217.80;67.20;;;;;;;-141.28;100.00;49131.16;5114519;28;20439;-74
2022/11/16 00:11:40;;;;;;;241.03;62.60;;;;;;;-141.28;100.00;49056.59;5115384;28;20463;-78
2022/11/16 00:14:08;;;;;;;176.03;59.73;;;;;;;-141.28;100.00;49060.53;5115454;28;20490;-75
2022/11/16 00:16:38;;;;;;;245.67;62.63;;;;;;;-141.28;100.00;49066.41;5114346;28;20463;-79
2022/11/16 00:19:09;;;;;;;276.33;64.33;;;;;;;-141.28;100.00;49042.88;5114795;28;20496;-75
2022/11/16 00:21:37;;;;;;;378.10;65.00;;;;;;;-141.28;100.00;49066.41;5115017;28;20460;-76
2022/11/16 00:24:08;;;;;;;182.47;61.43;;;;;;;-141.28;100.00;49089.97;5115097;28;20522;-77
2022/11/16 00:26:55;;;;;;;280.20;60.63;;;;;;;-141.28;100.00;49036.97;5119771;28;20482;-75
2022/11/16 00:29:29;;;;;;;170.03;59.40;;;;;;;-141.28;100.00;49019.31;5112712;28;20464;-73
2022/11/16 00:31:58;;;;;;;275.53;65.47;;;;;;;-141.28;100.00;49007.56;5108077;28;20448;-76
2022/11/16 00:34:25;;;;;;;250.00;58.63;;;;;;;-141.28;100.00;48993.81;5099871;28;20548;-75
2022/11/16 00:36:52;;;;;;;304.13;61.90;;;;;;;-141.28;100.00;49027.19;5113795;28;20461;-76
2022/11/16 00:39:19;;;;;;;183.43;57.80;;;;;;;-141.28;100.00;49035.03;5114268;28;20441;-74
2022/11/16 00:41:48;;;;;;;229.00;61.07;;;;;;;-141.28;100.00;49042.88;5110457;28;20445;-75
2022/11/16 00:44:20;;;;;;;194.83;61.07;;;;;;;-141.28;100.00;49023.25;5104743;28;20488;-76
2022/11/16 00:46:53;;;;;;;237.43;62.77;;;;;;;-141.28;100.00;49007.56;5115540;28;20441;-76
2022/11/16 00:49:25;;;;;;;178.87;63.17;;;;;;;-141.28;100.00;48968.31;5115604;28;20490;-76
2022/11/16 00:51:57;;;;;;;169.90;59.53;;;;;;;-141.28;100.00;48948.69;5116833;28;20871;-75
2022/11/16 00:54:26;;;;;;;156.37;58.77;;;;;;;-141.28;100.00;48940.84;5118647;28;20858;-75
2022/11/16 01:08:09;;;;;;;258.73;55.47;;;;;;;-141.28;100.00;48715.22;5107493;28;20448;-73
2022/11/16 01:13:56;;;;;;;246.00;52.33;;;;;;;-141.28;100.00;48570.06;5095649;28;20522;-76
2022/11/16 01:16:25;;;;;;;145.40;51.20;;;;;;;-141.28;100.00;48570.06;5110667;27;20528;-75
2022/11/16 01:18:56;;;;;;;170.93;52.13;;;;;;;-141.28;100.00;48585.75;5119326;28;20483;-75
2022/11/16 01:21:25;;;;;;;162.63;50.03;;;;;;;-141.28;100.00;48575.94;5119791;28;20550;-74
2022/11/16 01:23:55;;;;;;;181.47;54.73;;;;;;;-141.28;100.00;48575.94;5117584;28;21026;-76
2022/11/16 01:26:23;;;;;;;187.77;56.60;;;;;;;-141.28;100.00;48585.75;5118959;28;20461;-76
2022/11/16 01:28:51;;;;;;;241.07;53.77;;;;;;;-141.28;100.00;48570.06;5115472;28;20456;-77
2022/11/16 01:31:18;;;;;;;213.27;57.80;;;;;;;-141.28;100.00;48560.25;5117109;28;20440;-74
2022/11/16 01:33:50;;;;;;;195.03;56.93;;;;;;;-141.28;100.00;48540.63;5115034;28;20449;-78
2022/11/16 01:36:20;;;;;;;321.27;58.83;;;;;;;-141.28;100.00;48536.69;5112647;28;20473;-77
2022/11/16 01:38:50;;;;;;;242.63;56.87;;;;;;;-141.28;100.00;48528.84;5119701;28;20506;-74
2022/11/16 01:41:19;;;;;;;287.70;58.40;;;;;;;-141.28;100.00;48524.94;5116740;28;20890;-75
2022/11/16 01:43:55;;;;;;;247.50;53.37;;;;;;;-141.28;100.00;48497.47;5118713;28;20480;-74
2022/11/16 01:46:23;;;;;;;194.80;49.60;;;;;;;-141.28;100.00;48481.78;5107895;28;20919;-73
2022/11/16 01:48:56;;;;;;;299.67;53.83;;;;;;;-141.28;100.00;48487.66;5114256;28;20863;-75
2022/11/16 01:51:24;;;;;;;240.17;52.13;;;;;;;-141.28;100.00;48466.09;5112237;28;20448;-77
2022/11/16 01:53:55;;;;;;;395.97;54.60;;;;;;;-141.28;100.00;48454.31;5103548;28;20598;-76
2022/11/16 01:56:26;;;;;;;539.13;62.90;;;;;;;-141.28;100.00;48462.16;5116012;28;20463;-75
2022/11/16 01:58:58;;;;;;;260.70;54.63;;;;;;;-141.28;100.00;48438.63;5104225;28;20450;-73
2022/11/16 02:01:24;;;;;;;321.63;54.03;;;;;;;-141.28;100.00;48434.69;5102976;28;20488;-74
2022/11/16 02:03:51;;;;;;;373.50;58.03;;;;;;;-141.28;100.00;48438.63;5112114;28;20990;-78
2022/11/16 02:06:52;;;;;;;387.43;55.03;;;;;;;-141.28;100.00;48379.78;5113546;28;20449;-75
2022/11/16 02:09:53;;;;;;;274.27;50.33;;;;;;;-141.28;100.00;48352.31;5085474;28;21066;-75
2022/11/16 02:12:44;;;;;;;226.47;47.10;;;;;;;-141.28;100.00;48305.22;5113398;28;20437;-75
2022/11/16 02:15:19;;;;;;;226.83;47.73;;;;;;;-141.28;100.00;48313.06;5113836;28;20465;-75
2022/11/16 02:17:56;;;;;;;205.60;44.07;;;;;;;-141.28;100.00;48317.00;5100163;28;20451;-77
2022/11/16 02:20:43;;;;;;;195.77;47.13;;;;;;;-141.28;100.00;48285.59;5113317;28;20546;-75
2022/11/16 02:24:02;;;;;;;243.93;48.73;;;;;;;-141.28;100.00;48234.59;5113514;28;20484;-75
2022/11/16 02:26:58;;;;;;;254.37;50.73;;;;;;;-141.28;100.00;48207.16;5113472;28;21348;-76
2022/11/16 02:29:30;;;;;;;156.97;47.50;;;;;;;-141.28;100.00;48199.31;5112788;28;20441;-77
2022/11/16 02:32:02;;;;;;;190.63;49.27;;;;;;;-141.28;100.00;48209.09;5101414;28;20456;-75
2022/11/16 02:34:34;;;;;;;215.67;51.43;;;;;;;-141.28;100.00;48215.00;5113485;28;20505;-79
2022/11/16 02:37:04;;;;;;;237.80;52.70;;;;;;;-141.28;100.00;48211.06;5115538;28;20452;-77
2022/11/16 02:39:33;;;;;;;257.70;51.90;;;;;;;-141.28;100.00;48226.75;5117512;28;20442;-76
2022/11/16 02:42:02;;;;;;;317.87;55.87;;;;;;;-141.28;100.00;48230.69;5115014;28;20883;-76
2022/11/16 02:44:34;;;;;;;285.23;55.33;;;;;;;-141.28;100.00;48209.09;5110871;28;20485;-73
2022/11/16 02:47:05;;;;;;;230.40;52.80;;;;;;;-141.28;100.00;48203.22;5122468;28;20417;-75
2022/11/16 02:49:37;;;;;;;240.43;52.57;;;;;;;-141.28;100.00;48207.16;5128799;28;20442;-75
2022/11/16 02:52:05;;;;;;;204.80;50.73;;;;;;;-141.28;100.00;48189.50;5121908;28;20441;-73
2022/11/16 02:54:32;;;;;;;249.03;49.87;;;;;;;-141.28;100.00;48195.38;5129583;28;20448;-76
2022/11/16 02:57:30;;;;;;;548.93;64.60;;;;;;;-141.28;100.00;48171.84;5124907;28;20883;-75
2022/11/16 03:00:00;;;;;;;329.37;48.97;;;;;;;-141.28;100.00;48162.03;5135185;28;20476;-75
2022/11/16 03:02:32;;;;;;;475.30;52.47;;;;;;;-141.28;100.00;48175.75;5117371;28;20485;-75
2022/11/16 03:05:02;;;;;;;457.47;54.23;;;;;;;-141.28;100.00;48160.06;5113306;28;20514;-75
2022/11/16 03:07:34;;;;;;;357.30;49.27;;;;;;;-141.28;100.00;48148.31;5113023;28;20448;-75
2022/11/16 03:10:02;;;;;;;411.40;56.03;;;;;;;-141.28;100.00;48158.09;5112470;28;20463;-77
2022/11/16 03:12:31;;;;;;;293.97;52.30;;;;;;;-141.28;100.00;48162.03;5099611;28;20448;-75
2022/11/16 03:15:02;;;;;;;286.13;53.60;;;;;;;-141.28;100.00;48152.22;5111113;28;20971;-77
2022/11/16 03:17:31;;;;;;;258.20;47.60;;;;;;;-141.28;100.00;48156.16;5112471;28;20433;-74
2022/11/16 03:20:04;;;;;;;266.60;46.83;;;;;;;-141.28;100.00;48140.47;5111769;28;20560;-78
2022/11/16 03:22:38;;;;;;;230.07;48.17;;;;;;;-141.28;100.00;48148.31;5112245;28;20445;-77
2022/11/16 03:25:07;;;;;;;354.23;51.93;;;;;;;-141.28;100.00;48136.53;5111706;28;20483;-77
2022/11/16 03:27:38;;;;;;;179.10;43.37;;;;;;;-141.28;100.00;48140.47;5111839;28;20453;-74
2022/11/16 03:30:14;;;;;;;353.87;50.17;;;;;;;-141.28;100.00;48126.72;5112212;28;20548;-76
2022/11/16 03:32:46;;;;;;;181.50;43.10;;;;;;;-141.28;100.00;48128.69;5112886;28;20440;-76
2022/11/16 03:35:19;;;;;;;288.20;44.93;;;;;;;-141.28;100.00;48116.91;5100200;28;20939;-75
2022/11/16 03:37:49;;;;;;;323.23;50.90;;;;;;;-141.28;100.00;48120.84;5112659;28;20468;-74
2022/11/16 03:40:19;;;;;;;376.80;50.23;;;;;;;-141.28;100.00;48105.16;5111885;28;20959;-75
2022/11/16 03:42:48;;;;;;;336.43;51.87;;;;;;;-141.28;100.00;48109.06;5111373;28;20440;-75
2022/11/16 03:45:19;;;;;;;317.60;49.57;;;;;;;-141.28;100.00;48101.22;5112059;28;21103;-76
2022/11/16 03:47:47;;;;;;;278.10;42.73;;;;;;;-141.28;100.00;48097.31;5111528;28;20831;-77
2022/11/16 03:50:15;;;;;;;230.57;39.53;;;;;;;-141.28;100.00;48083.56;5111739;28;20509;-75
2022/11/16 03:52:43;;;;;;;328.87;46.57;;;;;;;-141.28;100.00;48093.38;5112062;28;20510;-75
2022/11/16 03:55:10;;;;;;;172.47;40.07;;;;;;;-141.28;100.00;48093.38;5110721;28;20457;-73
2022/11/16 03:57:39;;;;;;;168.37;40.40;;;;;;;-141.28;100.00;48085.53;5114257;28;20860;-75
2022/11/16 04:00:07;;;;;;;195.27;37.93;;;;;;;-141.28;100.00;48069.84;5111882;28;20594;-78
2022/11/16 04:02:35;;;;;;;203.37;37.93;;;;;;;-141.28;100.00;48077.69;5112050;28;20513;-78
2022/11/16 04:24:28;;;;;;;210.10;47.93;;;;;;;-141.28;100.00;47995.31;5080235;28;20514;-78
2022/11/16 04:29:43;;;;;;;162.13;42.97;;;;;;;-141.28;100.00;47983.53;5115214;28;20444;-78
2022/11/16 04:37:52;;;;;;;178.53;45.83;;;;;;;-141.28;100.00;47975.69;5115753;28;20906;-77
2022/11/16 04:40:20;;;;;;;177.10;47.03;;;;;;;-141.28;100.00;47975.69;5114897;28;20444;-73
2022/11/16 04:42:51;;;;;;;345.30;52.67;;;;;;;-141.28;100.00;47971.78;5115219;28;20445;-77
2022/11/16 04:48:12;;;;;;;192.77;53.43;;;;;;;-141.28;100.00;47956.06;5089670;28;20473;-76
2022/11/16 04:50:41;;;;;;;214.40;50.27;;;;;;;-141.28;100.00;47971.78;5116103;28;20441;-76
2022/11/16 04:53:09;;;;;;;211.63;45.47;;;;;;;-141.28;100.00;47969.81;5111760;28;20445;-77
2022/11/16 04:55:36;;;;;;;185.73;42.80;;;;;;;-141.28;100.00;47975.69;5109615;28;20449;-77
2022/11/16 04:58:03;;;;;;;113.57;36.90;;;;;;;-141.28;100.00;47969.81;5116443;28;20819;-73
2022/11/16 05:00:30;;;;;;;117.23;37.23;;;;;;;-141.28;100.00;47979.63;5115054;28;20452;-79
2022/11/16 05:02:57;;;;;;;125.60;37.13;;;;;;;-141.28;100.00;47979.63;5114664;28;20457;-75
2022/11/16 05:05:25;;;;;;;149.57;38.23;;;;;;;-141.28;100.00;47981.56;5115085;28;20507;-78
2022/11/16 05:07:53;;;;;;;151.43;41.83;;;;;;;-141.28;100.00;47975.69;5114961;28;20498;-76
2022/11/16 05:10:20;;;;;;;134.67;39.17;;;;;;;-141.28;100.00;47963.94;5114796;28;20510;-77
2022/11/16 05:12:47;;;;;;;148.47;42.43;;;;;;;-141.28;100.00;47979.63;5114604;28;20501;-75
2022/11/16 05:15:16;;;;;;;129.73;40.53;;;;;;;-141.28;100.00;47977.66;5118124;28;20453;-74
2022/11/16 05:17:43;;;;;;;165.40;39.80;;;;;;;-141.28;100.00;47977.66;5114909;28;20502;-75
2022/11/16 05:22:58;;;;;;;144.73;38.57;;;;;;;-141.28;100.00;47960.00;5115333;28;20432;-78
2022/11/16 05:25:25;;;;;;;120.53;38.80;;;;;;;-141.28;100.00;47965.88;5116408;28;20669;-75
2022/11/16 05:27:52;;;;;;;158.67;41.00;;;;;;;-141.28;100.00;47967.84;5114761;28;20554;-74
2022/11/16 05:30:19;;;;;;;149.53;36.70;;;;;;;-141.28;100.00;47963.94;5114726;28;20487;-77
2022/11/16 05:32:46;;;;;;;114.57;34.13;;;;;;;-141.28;100.00;47967.84;5114600;28;20812;-77
2022/11/16 05:35:13;;;;;;;144.93;36.07;;;;;;;-141.28;100.00;47973.72;5114537;28;20445;-74
2022/11/16 05:37:40;;;;;;;157.93;36.13;;;;;;;-141.28;100.00;47958.03;5113008;28;20537;-75
2022/11/16 05:40:11;;;;;;;108.63;34.63;;;;;;;-141.28;100.00;47961.97;5117995;28;20457;-76
2022/11/16 05:42:39;;;;;;;142.57;34.00;;;;;;;-141.28;100.00;47969.81;5103607;28;20441;-76
2022/11/16 05:45:07;;;;;;;123.63;37.10;;;;;;;-141.28;100.00;47963.94;5119238;28;20484;-79
2022/11/16 05:47:36;;;;;;;114.23;34.67;;;;;;;-141.28;100.00;47963.94;5115862;28;20449;-77
2022/11/16 05:50:03;;;;;;;129.90;36.67;;;;;;;-141.28;100.00;47971.78;5114564;28;20513;-74
2022/11/16 05:52:29;;;;;;;112.77;37.37;;;;;;;-141.28;100.00;47967.84;5113817;28;20460;-74
2022/11/16 05:54:57;;;;;;;185.57;38.60;;;;;;;-141.28;100.00;47971.78;5111237;28;20464;-78
2022/11/16 05:57:25;;;;;;;97.20;34.43;;;;;;;-141.28;100.00;47971.78;5103086;28;20452;-78
2022/11/16 05:59:52;;;;;;;131.47;36.63;;;;;;;-141.28;100.00;47963.94;5114448;28;20441;-78
2022/11/16 06:02:19;;;;;;;116.73;38.90;;;;;;;-141.28;100.00;47963.94;5113667;28;20480;-75
2022/11/16 06:04:46;;;;;;;113.23;41.00;;;;;;;-141.28;100.00;47963.94;5113855;28;20514;-78
2022/11/16 06:07:13;;;;;;;116.70;39.53;;;;;;;-141.28;100.00;47960.00;5108845;28;20503;-76
2022/11/16 06:09:40;;;;;;;113.77;42.03;;;;;;;-141.28;100.00;47967.84;5104900;28;20449;-78
2022/11/16 06:12:08;;;;;;;132.53;48.57;;;;;;;-141.28;100.00;47963.94;5113995;28;20919;-76
2022/11/16 06:14:36;;;;;;;118.40;44.97;;;;;;;-141.28;100.00;47965.88;5102328;28;20513;-75
2022/11/16 06:17:03;;;;;;;100.17;41.13;;;;;;;-141.28;100.00;47971.78;5115670;28;20558;-77
2022/11/16 06:19:31;;;;;;;377.30;99.07;;;;;;;-141.28;100.00;47963.94;5115918;28;20468;-77
2022/11/16 06:22:00;;;;;;;246.87;70.73;;;;;;;-141.28;100.00;47967.84;5099996;28;20509;-76
2022/11/16 06:24:27;;;;;;;253.27;80.17;;;;;;;-141.28;100.00;47967.84;5113700;28;20433;-77
2022/11/16 06:26:53;;;;;;;188.60;62.47;;;;;;;-141.28;100.00;47971.78;5120798;28;20915;-73
2022/11/16 06:29:21;;;;;;;210.30;69.07;;;;;;;-141.28;100.00;47977.66;5121059;28;20456;-73
2022/11/16 06:31:49;;;;;;;114.63;46.27;;;;;;;-141.28;100.00;47971.78;5121461;28;20448;-74
2022/11/16 06:34:16;;;;;;;112.73;42.10;;;;;;;-141.28;100.00;47977.66;5123654;28;20486;-72
2022/11/16 06:36:44;;;;;;;85.83;37.87;;;;;;;-141.28;100.00;47987.47;5118369;28;20472;-73
2022/11/16 06:39:12;;;;;;;75.70;34.83;;;;;;;-141.28;100.00;47975.69;5118087;28;20448;-74
2022/11/16 06:41:39;;;;;;;85.67;35.20;;;;;;;-141.28;100.00;47979.63;5112400;28;20490;-76
2022/11/16 06:44:06;;;;;;;72.00;32.17;;;;;;;-141.28;100.00;47971.78;5113489;28;20453;-76
2022/11/16 06:46:34;;;;;;;71.73;32.20;;;;;;;-141.28;100.00;47983.53;5112714;28;20484;-74
2022/11/16 06:49:02;;;;;;;83.13;32.53;;;;;;;-141.28;100.00;47995.31;5112241;28;20479;-74
2022/11/16 06:51:29;;;;;;;82.13;33.57;;;;;;;-141.28;100.00;47997.28;5112894;28;20827;-77
2022/11/16 06:53:56;;;;;;;75.93;33.30;;;;;;;-141.28;100.00;47995.31;5111293;28;20915;-76
2022/11/16 06:56:24;;;;;;;78.97;34.37;;;;;;;-141.28;100.00;47991.38;5112816;28;20452;-77
2022/11/16 06:58:50;;;;;;;80.13;35.53;;;;;;;-141.28;100.00;48005.13;5112082;28;20448;-74
2022/11/16 07:01:17;;;;;;;75.07;34.20;;;;;;;-141.28;100.00;48014.91;5112163;28;20493;-75
2022/11/16 07:03:44;;;;;;;74.03;31.50;;;;;;;-141.28;100.00;48018.84;5112025;28;20452;-75
2022/11/16 07:06:14;;;;;;;83.87;37.10;;;;;;;-141.28;100.00;48026.69;5112465;28;20488;-75
2022/11/16 07:08:41;;;;;;;90.77;37.30;;;;;;;-141.28;100.00;48026.69;5112214;28;20448;-77
2022/11/16 07:11:10;;;;;;;72.93;34.27;;;;;;;-141.28;100.00;48026.69;5111969;28;20464;-75
2022/11/16 07:13:38;;;;;;;73.27;33.70;;;;;;;-141.28;100.00;48032.56;5112139;28;20476;-76
2022/11/16 07:16:06;;;;;;;74.57;32.70;;;;;;;-141.28;100.00;48040.41;5113098;28;20889;-76
2022/11/16 07:18:34;;;;;;;67.57;31.07;;;;;;;-141.28;100.00;48046.31;5112419;28;20833;-77
2022/11/16 07:21:06;;;;;;;75.50;33.07;;;;;;;-141.28;100.00;48054.16;5112029;28;20448;-74
2022/11/16 07:23:34;;;;;;;68.73;32.73;;;;;;;-141.28;100.00;48034.53;5112513;28;20951;-76
2022/11/16 07:26:02;;;;;;;74.50;32.83;;;;;;;-141.28;100.00;48054.16;5111705;28;20484;-79
2022/11/16 07:28:29;;;;;;;77.37;34.17;;;;;;;-141.28;100.00;48058.06;5112215;28;20473;-78
2022/11/16 07:31:00;;;;;;;82.37;38.20;;;;;;;-141.28;100.00;48067.88;5112161;28;20524;-75
2022/11/16 07:33:27;;;;;;;80.43;33.77;;;;;;;-141.28;100.00;48065.91;5112449;28;20444;-75
2022/11/16 07:35:55;;;;;;;95.33;41.77;;;;;;;-141.28;100.00;48065.91;5111338;28;20444;-76
2022/11/16 07:38:22;;;;;;;83.27;37.43;;;;;;;-141.28;100.00;48067.88;5111661;28;20453;-76
2022/11/16 07:40:51;;;;;;;90.03;37.57;;;;;;;-141.28;100.00;48083.56;5111912;28;20441;-78
2022/11/16 07:43:19;;;;;;;83.10;38.20;;;;;;;-141.28;100.00;48079.66;5111823;28;20497;-75
2022/11/16 07:45:45;;;;;;;93.47;40.57;;;;;;;-141.28;100.00;48083.56;5111983;28;20863;-75
2022/11/16 07:48:12;;;;;;;84.40;34.53;;;;;;;-141.28;100.00;48077.69;5111714;28;20486;-77
2022/11/16 07:50:40;;;;;;;66.30;32.87;;;;;;;-141.28;100.00;48081.59;5112126;28;20864;-78
2022/11/16 07:53:08;;;;;;;81.60;34.00;;;;;;;-141.28;100.00;48081.59;5114697;28;20811;-74
2022/11/16 07:55:35;;;;;;;70.80;33.87;;;;;;;-141.28;100.00;48081.59;5110657;28;20970;-75
2022/11/16 07:58:03;;;;;;;75.60;33.63;;;;;;;-141.28;100.00;48081.59;5111474;28;20449;-75
2022/11/16 08:00:31;;;;;;;75.93;34.50;;;;;;;-141.28;100.00;48077.69;5113126;28;20528;-76
2022/11/16 08:03:00;;;;;;;89.10;36.03;;;;;;;-141.28;100.00;48093.38;5115808;28;20441;-78
2022/11/16 08:05:27;;;;;;;77.90;35.97;;;;;;;-141.28;100.00;48097.31;5116024;28;20491;-77
2022/11/16 08:07:53;;;;;;;81.67;33.00;;;;;;;-141.28;100.00;48093.38;5115785;28;20459;-78
2022/11/16 08:10:21;;;;;;;71.53;33.10;;;;;;;-141.28;100.00;48101.22;5115069;28;20510;-75
2022/11/16 08:12:49;;;;;;;83.93;34.40;;;;;;;-141.28;100.00;48101.22;5116049;28;20513;-78
2022/11/16 08:15:17;;;;;;;73.87;33.33;;;;;;;-141.28;100.00;48116.91;5115597;28;20826;-75
2022/11/16 08:17:44;;;;;;;87.83;36.67;;;;;;;-141.28;100.00;48126.72;5116049;28;20444;-78
2022/11/16 08:20:13;;;;;;;91.10;39.13;;;;;;;-141.28;100.00;48134.56;5115155;28;20500;-76
2022/11/16 08:22:41;;;;;;;99.97;40.77;;;;;;;-141.28;100.00;48120.84;5115591;28;20505;-77
2022/11/16 08:25:09;;;;;;;95.07;40.37;;;;;;;-141.28;100.00;48120.84;5115175;28;20437;-78
2022/11/16 08:27:36;;;;;;;128.77;54.57;;;;;;;-141.28;100.00;48132.59;5115634;28;20445;-76
2022/11/16 08:30:07;;;;;;;112.30;50.87;;;;;;;-141.28;100.00;48136.53;5115395;28;20493;-76
2022/11/16 08:32:36;;;;;;;117.63;50.67;;;;;;;-141.28;100.00;48138.50;5115599;28;20440;-75
2022/11/16 08:35:04;;;;;;;124.47;46.83;;;;;;;-141.28;100.00;48144.38;5108437;28;20955;-78
2022/11/16 08:37:32;;;;;;;104.47;41.43;;;;;;;-141.28;100.00;48156.16;5108123;28;20455;-75
2022/11/16 08:39:59;;;;;;;99.97;41.83;;;;;;;-141.28;100.00;48156.16;5115062;28;20440;-76
2022/11/16 08:42:26;;;;;;;93.53;41.43;;;;;;;-141.28;100.00;48164.00;5115161;28;20509;-75
2022/11/16 08:44:52;;;;;;;88.27;39.50;;;;;;;-141.28;100.00;48162.03;5115479;28;20467;-76
2022/11/16 08:47:19;;;;;;;83.10;38.90;;;;;;;-141.28;100.00;48175.75;5114559;28;20511;-78
2022/11/16 08:49:49;;;;;;;91.73;35.20;;;;;;;-141.28;100.00;48187.53;5114965;28;20909;-75
2022/11/16 08:52:16;;;;;;;86.80;36.67;;;;;;;-141.28;100.00;48191.44;5101214;28;20479;-75
2022/11/16 08:54:43;;;;;;;74.63;34.30;;;;;;;-141.28;100.00;48191.44;5113803;28;20502;-76
2022/11/16 08:57:10;;;;;;;80.60;32.20;;;;;;;-141.28;100.00;48183.59;5113203;28;21043;-76
2022/11/16 08:59:37;;;;;;;81.30;33.17;;;;;;;-141.28;100.00;48207.16;5103222;28;20517;-76
2022/11/16 09:02:06;;;;;;;78.03;33.67;;;;;;;-141.28;100.00;48226.75;5114149;28;20920;-76
2022/11/16 09:04:33;;;;;;;84.03;33.57;;;;;;;-141.28;100.00;48207.16;5114765;28;20475;-76
2022/11/16 09:07:01;;;;;;;92.13;34.63;;;;;;;-141.28;100.00;48238.53;5114373;28;20531;-76
2022/11/16 09:09:28;;;;;;;84.73;33.10;;;;;;;-141.28;100.00;48238.53;5114659;28;20531;-75
2022/11/16 09:11:57;;;;;;;89.60;35.97;;;;;;;-141.28;100.00;48238.53;5115490;28;20441;-74
2022/11/16 09:14:27;;;;;;;81.97;33.07;;;;;;;-141.28;100.00;48246.38;5115155;28;20484;-78
2022/11/16 09:16:56;;;;;;;79.30;33.23;;;;;;;-141.28;100.00;48269.91;5110230;28;20503;-76
2022/11/16 09:19:23;;;;;;;89.77;36.27;;;;;;;-141.28;100.00;48273.84;5106356;28;20514;-75
2022/11/16 09:21:50;;;;;;;88.90;37.97;;;;;;;-141.28;100.00;48281.69;5113071;28;20501;-76
2022/11/16 09:24:18;;;;;;;95.90;38.30;;;;;;;-141.28;100.00;48299.34;5114530;28;20947;-75
2022/11/16 09:26:45;;;;;;;88.73;38.93;;;;;;;-141.28;100.00;48311.09;5114193;28;20485;-75
2022/11/16 09:29:14;;;;;;;86.53;36.20;;;;;;;-141.28;100.00;48309.16;5114108;28;20502;-74
2022/11/16 09:31:43;;;;;;;73.30;32.10;;;;;;;-141.28;100.00;48340.53;5102678;28;20445;-76
2022/11/16 09:34:10;;;;;;;81.87;31.53;;;;;;;-141.28;100.00;48334.66;5114137;28;20455;-76
2022/11/16 09:36:37;;;;;;;81.53;32.87;;;;;;;-141.28;100.00;48346.41;5114203;28;20445;-76
2022/11/16 09:39:04;;;;;;;74.33;32.23;;;;;;;-141.28;100.00;48326.81;5115908;28;20505;-75
2022/11/16 09:42:01;;;;;;;86.70;33.57;;;;;;;-141.28;100.00;48299.34;5116387;28;20748;-74
2022/11/16 09:44:44;;;;;;;86.77;31.87;;;;;;;-141.28;100.00;48277.75;5114145;28;20493;-78
2022/11/16 09:47:18;;;;;;;80.73;32.17;;;;;;;-141.28;100.00;48250.31;5113982;28;20491;-75
2022/11/16 09:49:52;;;;;;;87.00;33.80;;;;;;;-141.28;100.00;48246.38;5101450;28;20448;-75
2022/11/16 09:52:27;;;;;;;79.93;33.77;;;;;;;-141.28;100.00;48242.47;5113724;28;20902;-78
2022/11/16 09:54:56;;;;;;;85.97;35.17;;;;;;;-141.28;100.00;48281.69;5112735;28;20462;-75
2022/11/16 09:57:31;;;;;;;78.77;35.17;;;;;;;-141.28;100.00;48317.00;5113428;28;20912;-75
2022/11/16 10:00:03;;;;;;;68.03;33.73;;;;;;;-141.28;100.00;48356.22;5114833;28;20448;-75
2022/11/16 10:02:35;;;;;;;77.43;33.47;;;;;;;-141.28;100.00;48313.06;5113995;28;20506;-76
2022/11/16 10:05:09;;;;;;;89.53;33.83;;;;;;;-141.28;100.00;48454.31;5113509;28;20908;-75
2022/11/16 10:07:41;;;;;;;69.57;32.07;;;;;;;-141.28;100.00;48375.84;5113676;28;20563;-75
2022/11/16 10:10:13;;;;;;;74.40;32.80;;;;;;;-141.28;100.00;48375.84;5113049;28;20927;-78
2022/11/16 10:12:46;;;;;;;61.93;30.33;;;;;;;-141.28;100.00;48395.47;5113093;28;20505;-76
2022/11/16 10:15:39;;;;;;;62.63;25.93;;;;;;;-141.28;100.00;48434.69;5113597;28;20457;-74
2022/11/16 10:18:24;;;;;;;56.30;27.60;;;;;;;-141.28;100.00;48448.44;5109689;28;20449;-76
2022/11/16 10:21:02;;;;;;;61.90;30.00;;;;;;;-141.28;100.00;48450.38;5100528;28;20879;-78
2022/11/16 10:23:43;;;;;;;56.43;29.33;;;;;;;-141.28;100.00;48575.94;5112369;28;20445;-76
2022/11/16 10:26:21;;;;;;;69.67;31.80;;;;;;;-141.28;100.00;48630.88;5113150;28;21009;-76
2022/11/16 10:29:03;;;;;;;72.43;32.50;;;;;;;-141.28;100.00;48907.50;5112946;28;20448;-76
2022/11/16 10:31:50;;;;;;;61.10;30.03;;;;;;;-141.28;100.00;49239.09;5115147;28;20203;-75
2022/11/16 10:34:22;;;;;;;60.43;28.60;;;;;;;-141.28;100.00;49447.06;5113225;28;20256;-75
2022/11/16 10:36:49;;;;;;;61.97;28.53;;;;;;;-141.28;100.00;49639.38;5112888;28;20214;-75
2022/11/16 10:39:19;;;;;;;56.83;28.40;;;;;;;-141.28;100.00;49835.63;5113310;28;20283;-75
2022/11/16 10:41:49;;;;;;;51.00;27.53;;;;;;;-141.28;100.00;50047.59;5112759;28;20195;-75
2022/11/16 10:44:25;;;;;;;41.73;22.57;;;;;;;-141.28;100.00;50263.47;5112641;28;20293;-76
2022/11/16 10:46:59;;;;;;;42.33;24.90;;;;;;;-141.28;100.00;50499.00;5112663;28;20230;-74
2022/11/16 10:49:34;;;;;;;74.97;42.27;;;;;;;-141.28;100.00;50530.41;5112617;28;20271;-75
2022/11/16 10:52:01;;;;;;;44.30;23.70;;;;;;;-141.28;100.00;50577.53;5114091;28;20696;-75
2022/11/16 10:54:30;;;;;;;43.93;25.10;;;;;;;-141.28;100.00;50589.31;5111407;28;20206;-77
2022/11/16 10:57:03;;;;;;;42.50;23.33;;;;;;;-141.28;100.00;50750.28;5112431;28;20199;-76
2022/11/16 10:59:43;;;;;;;45.70;23.53;;;;;;;-141.28;100.00;50891.63;5113245;28;20233;-75
2022/11/16 11:02:33;;;;;;;41.83;21.63;;;;;;;-141.28;100.00;51241.06;5092361;28;20298;-77
2022/11/16 11:05:16;;;;;;;39.07;22.37;;;;;;;-141.28;100.00;51217.50;5101215;28;20203;-80
2022/11/16 11:07:51;;;;;;;39.67;24.57;;;;;;;-141.28;100.00;50871.97;5112514;28;20227;-77
2022/11/16 11:10:30;;;;;;;41.53;24.43;;;;;;;-141.28;100.00;51109.53;5113066;28;20206;-76
2022/11/16 11:13:15;;;;;;;42.70;24.30;;;;;;;-141.28;100.00;51115.41;5099872;28;20241;-75
2022/11/16 11:15:46;;;;;;;46.47;24.00;;;;;;;-141.28;100.00;51111.50;5111806;28;20684;-75
2022/11/16 11:18:19;;;;;;;46.83;26.20;;;;;;;-141.28;100.00;50997.63;5111837;28;20235;-79
2022/11/16 11:20:50;;;;;;;42.47;24.73;;;;;;;-141.28;100.00;50911.25;5112338;28;20198;-78
2022/11/16 11:23:20;;;;;;;48.50;26.37;;;;;;;-141.28;100.00;51174.31;5111851;28;20278;-77
2022/11/16 11:25:53;;;;;;;43.07;25.80;;;;;;;-141.28;100.00;51374.56;5111372;28;20685;-76
2022/11/16 11:28:24;;;;;;;46.40;24.90;;;;;;;-141.28;100.00;51127.19;5112153;28;20265;-77
2022/11/16 11:31:12;;;;;;;48.40;26.73;;;;;;;-141.28;100.00;50836.66;5112185;28;20203;-76
2022/11/16 11:33:43;;;;;;;47.17;25.93;;;;;;;-141.28;100.00;50697.28;5110540;28;20234;-75
2022/11/16 11:36:18;;;;;;;49.60;26.50;;;;;;;-141.28;100.00;50658.00;5111764;28;20650;-78
2022/11/16 11:38:58;;;;;;;50.47;26.27;;;;;;;-141.28;100.00;50765.97;5111889;28;20664;-76
2022/11/16 11:41:26;;;;;;;47.20;27.53;;;;;;;-141.28;100.00;50930.88;5112332;28;20199;-76
2022/11/16 11:44:02;;;;;;;41.27;24.87;;;;;;;-141.28;100.00;51031.00;5112385;28;20195;-78
2022/11/16 11:46:36;;;;;;;51.70;28.93;;;;;;;-141.28;100.00;50954.44;5111781;28;20283;-77
2022/11/16 11:49:11;;;;;;;47.80;26.90;;;;;;;-141.28;100.00;50652.13;5112994;28;20199;-75
2022/11/16 11:51:41;;;;;;;45.97;26.20;;;;;;;-141.28;100.00;50420.50;5113235;28;20194;-75
2022/11/16 11:54:17;;;;;;;50.93;24.87;;;;;;;-141.28;100.00;50294.88;5111028;28;20617;-79